sensor_id;sensor_type;location;lat;lon;timestamp;temperature;humidity
6379;DHT22;3222;48.858;10.128;2023-03-31T00:02:18;10.00;99.90
6379;DHT22;3222;48.858;10.128;2023-03-31T00:04:46;10.10;99.90
6379;DHT22;3222;48.858;10.128;2023-03-31T00:07:18;10.00;99.90
6379;DHT22;3222;48.858;10.128;2023-03-31T00:09:47;10.00;99.90
6379;DHT22;3222;48.858;10.128;2023-03-31T00:12:14;10.00;99.90
6379;DHT22;3222;48.858;10.128;2023-03-31T00:14:41;10.00;99.90
6379;DHT22;3222;48.858;10.128;2023-03-31T00:17:07;10.00;99.90
6379;DHT22;3222;48.858;10.128;2023-03-31T00:19:33;9.90;99.90
6379;DHT22;3222;48.858;10.128;2023-03-31T00:21:59;9.90;99.90
6379;DHT22;3222;48.858;10.128;2023-03-31T00:24:27;9.90;99.90
6379;DHT22;3222;48.858;10.128;2023-03-31T00:27:01;9.90;99.90
6379;DHT22;3222;48.858;10.128;2023-03-31T00:29:27;9.90;99.90
6379;DHT22;3222;48.858;10.128;2023-03-31T00:31:52;9.90;99.90
6379;DHT22;3222;48.858;10.128;2023-03-31T00:34:20;9.90;99.90
6379;DHT22;3222;48.858;10.128;2023-03-31T00:36:46;9.80;99.90
6379;DHT22;3222;48.858;10.128;2023-03-31T00:39:13;9.80;99.90
6379;DHT22;3222;48.858;10.128;2023-03-31T00:41:39;9.80;99.90
6379;DHT22;3222;48.858;10.128;2023-03-31T00:47:16;9.80;99.90
6379;DHT22;3222;48.858;10.128;2023-03-31T00:49:50;9.80;99.90
6379;DHT22;3222;48.858;10.128;2023-03-31T00:52:23;9.80;99.90
6379;DHT22;3222;48.858;10.128;2023-03-31T00:54:54;9.90;99.90
6379;DHT22;3222;48.858;10.128;2023-03-31T00:57:22;9.90;99.90
6379;DHT22;3222;48.858;10.128;2023-03-31T00:59:52;9.90;99.90
6379;DHT22;3222;48.858;10.128;2023-03-31T01:02:21;9.90;99.90
6379;DHT22;3222;48.858;10.128;2023-03-31T01:04:52;9.80;99.90
6379;DHT22;3222;48.858;10.128;2023-03-31T01:07:27;9.80;99.90
6379;DHT22;3222;48.858;10.128;2023-03-31T01:09:58;9.90;99.90
6379;DHT22;3222;48.858;10.128;2023-03-31T01:12:26;9.90;99.90
6379;DHT22;3222;48.858;10.128;2023-03-31T01:14:52;9.80;99.90
6379;DHT22;3222;48.858;10.128;2023-03-31T01:17:20;9.80;99.90
6379;DHT22;3222;48.858;10.128;2023-03-31T01:39:06;9.90;99.90
6379;DHT22;3222;48.858;10.128;2023-03-31T01:44:29;10.00;99.90
6379;DHT22;3222;48.858;10.128;2023-03-31T01:47:05;9.80;99.90
6379;DHT22;3222;48.858;10.128;2023-03-31T01:49:59;9.70;99.90
6379;DHT22;3222;48.858;10.128;2023-03-31T01:52:39;9.70;99.90
6379;DHT22;3222;48.858;10.128;2023-03-31T01:55:25;9.80;99.90
6379;DHT22;3222;48.858;10.128;2023-03-31T01:58:00;9.90;99.90
6379;DHT22;3222;48.858;10.128;2023-03-31T02:00:35;9.90;99.90
6379;DHT22;3222;48.858;10.128;2023-03-31T02:03:36;9.90;99.90
6379;DHT22;3222;48.858;10.128;2023-03-31T02:06:17;10.00;99.90
6379;DHT22;3222;48.858;10.128;2023-03-31T02:08:48;10.00;99.90
6379;DHT22;3222;48.858;10.128;2023-03-31T02:11:14;9.80;99.90
6379;DHT22;3222;48.858;10.128;2023-03-31T02:13:42;9.80;99.90
6379;DHT22;3222;48.858;10.128;2023-03-31T02:16:12;9.90;99.90
6379;DHT22;3222;48.858;10.128;2023-03-31T02:18:43;9.90;99.90
6379;DHT22;3222;48.858;10.128;2023-03-31T02:21:11;9.80;99.90
6379;DHT22;3222;48.858;10.128;2023-03-31T02:23:39;9.90;99.90
6379;DHT22;3222;48.858;10.128;2023-03-31T02:26:36;9.90;99.90
6379;DHT22;3222;48.858;10.128;2023-03-31T02:29:03;9.80;99.90
6379;DHT22;3222;48.858;10.128;2023-03-31T02:31:48;9.80;99.90
6379;DHT22;3222;48.858;10.128;2023-03-31T02:34:17;9.80;99.90
6379;DHT22;3222;48.858;10.128;2023-03-31T02:36:43;9.90;99.90
6379;DHT22;3222;48.858;10.128;2023-03-31T02:39:17;9.90;99.90
6379;DHT22;3222;48.858;10.128;2023-03-31T02:41:44;10.00;99.90
6379;DHT22;3222;48.858;10.128;2023-03-31T02:44:11;10.00;99.90
6379;DHT22;3222;48.858;10.128;2023-03-31T02:46:37;10.10;99.90
6379;DHT22;3222;48.858;10.128;2023-03-31T02:49:06;10.20;99.90
6379;DHT22;3222;48.858;10.128;2023-03-31T02:54:47;10.00;99.90
6379;DHT22;3222;48.858;10.128;2023-03-31T03:11:11;9.90;99.90
6379;DHT22;3222;48.858;10.128;2023-03-31T03:16:23;9.90;99.90
6379;DHT22;3222;48.858;10.128;2023-03-31T03:19:01;10.00;99.90
6379;DHT22;3222;48.858;10.128;2023-03-31T03:21:28;10.10;99.90
6379;DHT22;3222;48.858;10.128;2023-03-31T03:23:54;10.10;99.90
6379;DHT22;3222;48.858;10.128;2023-03-31T03:26:20;10.00;99.90
6379;DHT22;3222;48.858;10.128;2023-03-31T03:28:48;9.80;99.90
6379;DHT22;3222;48.858;10.128;2023-03-31T03:31:15;9.90;99.90
6379;DHT22;3222;48.858;10.128;2023-03-31T03:33:41;9.90;99.90
6379;DHT22;3222;48.858;10.128;2023-03-31T03:36:07;9.80;99.90
6379;DHT22;3222;48.858;10.128;2023-03-31T03:38:33;9.80;99.90
6379;DHT22;3222;48.858;10.128;2023-03-31T03:40:58;9.80;99.90
6379;DHT22;3222;48.858;10.128;2023-03-31T03:43:24;9.70;99.90
6379;DHT22;3222;48.858;10.128;2023-03-31T03:45:50;9.60;99.90
6379;DHT22;3222;48.858;10.128;2023-03-31T03:48:17;9.50;99.90
6379;DHT22;3222;48.858;10.128;2023-03-31T03:50:47;9.50;99.90
6379;DHT22;3222;48.858;10.128;2023-03-31T03:53:13;9.40;99.90
6379;DHT22;3222;48.858;10.128;2023-03-31T03:55:39;9.40;99.90
6379;DHT22;3222;48.858;10.128;2023-03-31T03:58:05;9.50;99.90
6379;DHT22;3222;48.858;10.128;2023-03-31T04:00:31;9.40;99.90
6379;DHT22;3222;48.858;10.128;2023-03-31T04:02:57;9.40;99.90
6379;DHT22;3222;48.858;10.128;2023-03-31T04:05:22;9.40;99.90
6379;DHT22;3222;48.858;10.128;2023-03-31T04:07:48;9.40;99.90
6379;DHT22;3222;48.858;10.128;2023-03-31T04:10:14;9.40;99.90
6379;DHT22;3222;48.858;10.128;2023-03-31T04:12:40;9.50;99.90
6379;DHT22;3222;48.858;10.128;2023-03-31T04:15:06;9.50;99.90
6379;DHT22;3222;48.858;10.128;2023-03-31T04:17:32;9.50;99.90
6379;DHT22;3222;48.858;10.128;2023-03-31T04:20:08;9.50;99.90
6379;DHT22;3222;48.858;10.128;2023-03-31T04:22:36;9.50;99.90
6379;DHT22;3222;48.858;10.128;2023-03-31T04:25:10;9.50;99.90
6379;DHT22;3222;48.858;10.128;2023-03-31T04:30:13;9.70;99.90
6379;DHT22;3222;48.858;10.128;2023-03-31T04:32:50;9.90;99.90
6379;DHT22;3222;48.858;10.128;2023-03-31T04:35:18;10.00;99.90
6379;DHT22;3222;48.858;10.128;2023-03-31T04:37:46;10.20;99.90
6379;DHT22;3222;48.858;10.128;2023-03-31T04:40:12;10.00;99.90
6379;DHT22;3222;48.858;10.128;2023-03-31T04:42:38;10.00;99.90
6379;DHT22;3222;48.858;10.128;2023-03-31T04:45:04;10.00;99.90
6379;DHT22;3222;48.858;10.128;2023-03-31T04:47:29;10.10;99.90
6379;DHT22;3222;48.858;10.128;2023-03-31T04:49:55;10.10;99.90
6379;DHT22;3222;48.858;10.128;2023-03-31T04:52:21;10.00;99.90
6379;DHT22;3222;48.858;10.128;2023-03-31T04:54:46;9.90;99.90
6379;DHT22;3222;48.858;10.128;2023-03-31T04:57:12;9.80;99.90
6379;DHT22;3222;48.858;10.128;2023-03-31T04:59:37;9.80;99.90
6379;DHT22;3222;48.858;10.128;2023-03-31T05:02:03;9.80;99.90
6379;DHT22;3222;48.858;10.128;2023-03-31T05:04:29;9.70;99.90
6379;DHT22;3222;48.858;10.128;2023-03-31T05:06:54;9.70;99.90
6379;DHT22;3222;48.858;10.128;2023-03-31T05:09:21;9.70;99.90
6379;DHT22;3222;48.858;10.128;2023-03-31T05:11:46;9.70;99.90
6379;DHT22;3222;48.858;10.128;2023-03-31T05:14:12;9.70;99.90
6379;DHT22;3222;48.858;10.128;2023-03-31T05:16:38;9.60;99.90
6379;DHT22;3222;48.858;10.128;2023-03-31T05:19:03;9.60;99.90
6379;DHT22;3222;48.858;10.128;2023-03-31T05:21:29;9.50;99.90
6379;DHT22;3222;48.858;10.128;2023-03-31T05:23:56;9.50;99.90
6379;DHT22;3222;48.858;10.128;2023-03-31T05:26:22;9.50;99.90
6379;DHT22;3222;48.858;10.128;2023-03-31T05:28:52;9.40;99.90
6379;DHT22;3222;48.858;10.128;2023-03-31T05:31:18;9.40;99.90
6379;DHT22;3222;48.858;10.128;2023-03-31T05:33:44;9.40;99.90
6379;DHT22;3222;48.858;10.128;2023-03-31T05:36:12;9.40;99.90
6379;DHT22;3222;48.858;10.128;2023-03-31T05:38:38;9.40;99.90
6379;DHT22;3222;48.858;10.128;2023-03-31T05:41:04;9.40;99.90
6379;DHT22;3222;48.858;10.128;2023-03-31T05:43:31;9.30;99.90
6379;DHT22;3222;48.858;10.128;2023-03-31T05:45:57;9.30;99.90
6379;DHT22;3222;48.858;10.128;2023-03-31T05:48:22;9.40;99.90
6379;DHT22;3222;48.858;10.128;2023-03-31T05:50:48;9.40;99.90
6379;DHT22;3222;48.858;10.128;2023-03-31T05:53:14;9.40;99.90
6379;DHT22;3222;48.858;10.128;2023-03-31T05:55:39;9.40;99.90
6379;DHT22;3222;48.858;10.128;2023-03-31T05:58:05;9.40;99.90
6379;DHT22;3222;48.858;10.128;2023-03-31T06:00:31;9.40;99.90
6379;DHT22;3222;48.858;10.128;2023-03-31T06:02:57;9.40;99.90
6379;DHT22;3222;48.858;10.128;2023-03-31T06:05:24;9.50;99.90
6379;DHT22;3222;48.858;10.128;2023-03-31T06:07:52;9.60;99.90
6379;DHT22;3222;48.858;10.128;2023-03-31T06:10:18;9.60;99.90
6379;DHT22;3222;48.858;10.128;2023-03-31T06:12:44;9.60;99.90
6379;DHT22;3222;48.858;10.128;2023-03-31T06:15:10;9.60;99.90
6379;DHT22;3222;48.858;10.128;2023-03-31T06:17:35;9.60;99.90
6379;DHT22;3222;48.858;10.128;2023-03-31T06:20:01;9.60;99.90
6379;DHT22;3222;48.858;10.128;2023-03-31T06:22:28;9.60;99.90
6379;DHT22;3222;48.858;10.128;2023-03-31T06:24:54;9.60;99.90
6379;DHT22;3222;48.858;10.128;2023-03-31T06:27:19;9.50;99.90
6379;DHT22;3222;48.858;10.128;2023-03-31T06:29:45;9.50;99.90
6379;DHT22;3222;48.858;10.128;2023-03-31T06:32:11;9.70;99.90
6379;DHT22;3222;48.858;10.128;2023-03-31T06:34:36;9.70;99.90
6379;DHT22;3222;48.858;10.128;2023-03-31T06:37:02;9.70;99.90
6379;DHT22;3222;48.858;10.128;2023-03-31T06:39:27;9.60;99.90
6379;DHT22;3222;48.858;10.128;2023-03-31T06:41:53;9.60;99.90
6379;DHT22;3222;48.858;10.128;2023-03-31T06:44:25;9.70;99.90
6379;DHT22;3222;48.858;10.128;2023-03-31T06:46:51;9.70;99.90
6379;DHT22;3222;48.858;10.128;2023-03-31T06:49:16;9.60;99.90
6379;DHT22;3222;48.858;10.128;2023-03-31T06:51:42;9.70;99.90
6379;DHT22;3222;48.858;10.128;2023-03-31T06:54:07;9.70;99.90
6379;DHT22;3222;48.858;10.128;2023-03-31T06:56:33;9.70;99.90
6379;DHT22;3222;48.858;10.128;2023-03-31T06:58:59;9.70;99.90
6379;DHT22;3222;48.858;10.128;2023-03-31T07:01:25;9.80;99.90
6379;DHT22;3222;48.858;10.128;2023-03-31T07:03:50;9.80;99.90
6379;DHT22;3222;48.858;10.128;2023-03-31T07:06:16;9.60;99.90
6379;DHT22;3222;48.858;10.128;2023-03-31T07:08:42;9.70;99.90
6379;DHT22;3222;48.858;10.128;2023-03-31T07:11:07;9.70;99.90
6379;DHT22;3222;48.858;10.128;2023-03-31T07:13:33;9.70;99.90
6379;DHT22;3222;48.858;10.128;2023-03-31T07:15:59;9.70;99.90
6379;DHT22;3222;48.858;10.128;2023-03-31T07:18:25;9.70;99.90
6379;DHT22;3222;48.858;10.128;2023-03-31T07:20:57;9.60;99.90
6379;DHT22;3222;48.858;10.128;2023-03-31T07:23:22;9.80;99.90
6379;DHT22;3222;48.858;10.128;2023-03-31T07:25:48;9.70;99.90
6379;DHT22;3222;48.858;10.128;2023-03-31T07:28:14;9.70;99.90
6379;DHT22;3222;48.858;10.128;2023-03-31T07:30:40;9.80;99.90
6379;DHT22;3222;48.858;10.128;2023-03-31T07:33:06;9.80;99.90
6379;DHT22;3222;48.858;10.128;2023-03-31T07:35:32;9.70;99.90
6379;DHT22;3222;48.858;10.128;2023-03-31T07:37:58;9.70;99.90
6379;DHT22;3222;48.858;10.128;2023-03-31T07:40:27;9.70;99.90
6379;DHT22;3222;48.858;10.128;2023-03-31T07:42:53;9.70;99.90
6379;DHT22;3222;48.858;10.128;2023-03-31T07:45:20;9.70;99.90
6379;DHT22;3222;48.858;10.128;2023-03-31T07:47:47;9.70;99.90
6379;DHT22;3222;48.858;10.128;2023-03-31T07:50:13;9.80;99.90
6379;DHT22;3222;48.858;10.128;2023-03-31T07:52:40;9.70;99.90
6379;DHT22;3222;48.858;10.128;2023-03-31T07:55:07;9.70;99.90
6379;DHT22;3222;48.858;10.128;2023-03-31T07:57:33;9.70;99.90
6379;DHT22;3222;48.858;10.128;2023-03-31T07:59:59;9.70;99.90
6379;DHT22;3222;48.858;10.128;2023-03-31T08:02:26;9.70;99.90
6379;DHT22;3222;48.858;10.128;2023-03-31T08:04:52;9.70;99.90
6379;DHT22;3222;48.858;10.128;2023-03-31T08:07:17;9.70;99.90
6379;DHT22;3222;48.858;10.128;2023-03-31T08:09:44;9.70;99.90
6379;DHT22;3222;48.858;10.128;2023-03-31T08:12:10;9.70;99.90
6379;DHT22;3222;48.858;10.128;2023-03-31T08:14:37;9.80;99.90
6379;DHT22;3222;48.858;10.128;2023-03-31T08:17:03;9.80;99.90
6379;DHT22;3222;48.858;10.128;2023-03-31T08:19:29;9.80;99.90
6379;DHT22;3222;48.858;10.128;2023-03-31T08:21:54;9.80;99.90
6379;DHT22;3222;48.858;10.128;2023-03-31T08:24:20;9.80;99.90
6379;DHT22;3222;48.858;10.128;2023-03-31T08:26:46;9.80;99.90
6379;DHT22;3222;48.858;10.128;2023-03-31T08:29:12;9.80;99.90
6379;DHT22;3222;48.858;10.128;2023-03-31T08:31:38;9.80;99.90
6379;DHT22;3222;48.858;10.128;2023-03-31T08:34:03;9.80;99.90
6379;DHT22;3222;48.858;10.128;2023-03-31T08:36:30;9.80;99.90
6379;DHT22;3222;48.858;10.128;2023-03-31T08:38:56;9.80;99.90
6379;DHT22;3222;48.858;10.128;2023-03-31T08:41:33;9.80;99.90
6379;DHT22;3222;48.858;10.128;2023-03-31T08:44:04;9.80;99.90
6379;DHT22;3222;48.858;10.128;2023-03-31T08:46:32;9.90;99.90
6379;DHT22;3222;48.858;10.128;2023-03-31T08:49:00;9.90;99.90
6379;DHT22;3222;48.858;10.128;2023-03-31T08:51:35;9.90;99.90
6379;DHT22;3222;48.858;10.128;2023-03-31T08:54:10;10.00;99.90
6379;DHT22;3222;48.858;10.128;2023-03-31T08:56:40;10.00;99.90
6379;DHT22;3222;48.858;10.128;2023-03-31T08:59:22;10.00;99.90
6379;DHT22;3222;48.858;10.128;2023-03-31T09:02:09;10.10;99.90
6379;DHT22;3222;48.858;10.128;2023-03-31T09:04:58;10.20;99.90
6379;DHT22;3222;48.858;10.128;2023-03-31T09:10:21;10.30;99.90
6379;DHT22;3222;48.858;10.128;2023-03-31T09:15:49;10.40;99.90
6379;DHT22;3222;48.858;10.128;2023-03-31T09:18:31;10.40;99.90
6379;DHT22;3222;48.858;10.128;2023-03-31T09:21:17;10.50;99.90
6379;DHT22;3222;48.858;10.128;2023-03-31T09:23:55;10.50;99.90
6379;DHT22;3222;48.858;10.128;2023-03-31T09:28:47;10.60;99.90
6379;DHT22;3222;48.858;10.128;2023-03-31T09:31:16;10.70;99.90
6379;DHT22;3222;48.858;10.128;2023-03-31T09:33:46;10.80;99.90
6379;DHT22;3222;48.858;10.128;2023-03-31T09:36:15;10.80;99.90
6379;DHT22;3222;48.858;10.128;2023-03-31T09:38:43;10.90;99.90
6379;DHT22;3222;48.858;10.128;2023-03-31T09:41:09;10.90;99.90
6379;DHT22;3222;48.858;10.128;2023-03-31T09:43:36;11.00;99.90
6379;DHT22;3222;48.858;10.128;2023-03-31T09:46:33;11.10;99.90
6379;DHT22;3222;48.858;10.128;2023-03-31T09:49:05;11.10;99.90
6379;DHT22;3222;48.858;10.128;2023-03-31T09:51:35;11.20;99.90
6379;DHT22;3222;48.858;10.128;2023-03-31T09:54:09;11.20;99.90
6379;DHT22;3222;48.858;10.128;2023-03-31T09:56:44;11.20;99.90
6379;DHT22;3222;48.858;10.128;2023-03-31T09:59:17;11.20;99.90
6379;DHT22;3222;48.858;10.128;2023-03-31T10:01:44;11.30;99.90
6379;DHT22;3222;48.858;10.128;2023-03-31T10:06:46;11.40;99.90
6379;DHT22;3222;48.858;10.128;2023-03-31T10:09:13;11.40;99.90
6379;DHT22;3222;48.858;10.128;2023-03-31T10:11:53;11.50;99.90
6379;DHT22;3222;48.858;10.128;2023-03-31T10:14:25;11.40;99.90
6379;DHT22;3222;48.858;10.128;2023-03-31T10:16:56;11.50;99.90
6379;DHT22;3222;48.858;10.128;2023-03-31T10:19:27;11.50;99.90
6379;DHT22;3222;48.858;10.128;2023-03-31T10:22:03;11.60;99.90
6379;DHT22;3222;48.858;10.128;2023-03-31T10:24:40;11.50;99.90
6379;DHT22;3222;48.858;10.128;2023-03-31T10:27:29;11.60;99.90
6379;DHT22;3222;48.858;10.128;2023-03-31T10:29:57;11.60;99.90
6379;DHT22;3222;48.858;10.128;2023-03-31T10:32:31;11.60;99.90
6379;DHT22;3222;48.858;10.128;2023-03-31T10:35:03;11.70;99.90
6379;DHT22;3222;48.858;10.128;2023-03-31T10:37:29;11.70;99.90
6379;DHT22;3222;48.858;10.128;2023-03-31T10:40:04;11.80;99.90
6379;DHT22;3222;48.858;10.128;2023-03-31T10:42:37;11.80;99.90
6379;DHT22;3222;48.858;10.128;2023-03-31T10:47:52;11.80;99.90
6379;DHT22;3222;48.858;10.128;2023-03-31T10:50:19;11.80;99.90
6379;DHT22;3222;48.858;10.128;2023-03-31T10:52:50;11.80;99.90
6379;DHT22;3222;48.858;10.128;2023-03-31T10:55:24;11.90;99.90
6379;DHT22;3222;48.858;10.128;2023-03-31T10:58:20;11.90;99.90
6379;DHT22;3222;48.858;10.128;2023-03-31T11:00:52;12.00;99.90
6379;DHT22;3222;48.858;10.128;2023-03-31T11:03:29;12.00;99.90
6379;DHT22;3222;48.858;10.128;2023-03-31T11:08:55;12.10;99.90
6379;DHT22;3222;48.858;10.128;2023-03-31T11:11:51;12.10;99.90
6379;DHT22;3222;48.858;10.128;2023-03-31T11:15:12;12.20;99.90
6379;DHT22;3222;48.858;10.128;2023-03-31T11:22:50;12.30;99.90
6379;DHT22;3222;48.858;10.128;2023-03-31T11:28:25;12.30;99.90
6379;DHT22;3222;48.858;10.128;2023-03-31T11:31:32;12.40;99.90
6379;DHT22;3222;48.858;10.128;2023-03-31T11:37:13;12.50;99.90
6379;DHT22;3222;48.858;10.128;2023-03-31T11:39:56;12.60;99.90
6379;DHT22;3222;48.858;10.128;2023-03-31T11:42:31;12.60;99.90
6379;DHT22;3222;48.858;10.128;2023-03-31T11:45:15;12.60;99.90
6379;DHT22;3222;48.858;10.128;2023-03-31T11:47:43;12.60;99.90
6379;DHT22;3222;48.858;10.128;2023-03-31T11:50:19;12.70;99.90
6379;DHT22;3222;48.858;10.128;2023-03-31T11:52:56;12.70;99.90
6379;DHT22;3222;48.858;10.128;2023-03-31T11:55:26;12.80;99.90
6379;DHT22;3222;48.858;10.128;2023-03-31T12:00:27;12.90;99.90
6379;DHT22;3222;48.858;10.128;2023-03-31T12:03:06;12.80;99.90
6379;DHT22;3222;48.858;10.128;2023-03-31T12:05:41;12.80;99.90
6379;DHT22;3222;48.858;10.128;2023-03-31T12:08:16;12.80;99.90
6379;DHT22;3222;48.858;10.128;2023-03-31T12:11:09;12.60;99.90
6379;DHT22;3222;48.858;10.128;2023-03-31T12:17:17;12.20;99.90
6379;DHT22;3222;48.858;10.128;2023-03-31T12:19:46;11.90;99.90
6379;DHT22;3222;48.858;10.128;2023-03-31T12:22:26;11.80;99.90
6379;DHT22;3222;48.858;10.128;2023-03-31T12:24:53;11.70;99.90
6379;DHT22;3222;48.858;10.128;2023-03-31T12:29:59;11.50;99.90
6379;DHT22;3222;48.858;10.128;2023-03-31T12:32:31;11.40;99.90
6379;DHT22;3222;48.858;10.128;2023-03-31T12:35:27;11.40;99.90
6379;DHT22;3222;48.858;10.128;2023-03-31T12:38:22;11.30;99.90
6379;DHT22;3222;48.858;10.128;2023-03-31T12:41:00;11.40;99.90
6379;DHT22;3222;48.858;10.128;2023-03-31T12:52:04;11.20;99.90
6379;DHT22;3222;48.858;10.128;2023-03-31T12:55:16;11.20;99.90
6379;DHT22;3222;48.858;10.128;2023-03-31T12:57:44;11.20;99.90
6379;DHT22;3222;48.858;10.128;2023-03-31T13:00:23;11.20;99.90
6379;DHT22;3222;48.858;10.128;2023-03-31T13:02:49;11.20;99.90
6379;DHT22;3222;48.858;10.128;2023-03-31T13:11:07;11.40;99.90
6379;DHT22;3222;48.858;10.128;2023-03-31T13:13:32;11.50;99.90
6379;DHT22;3222;48.858;10.128;2023-03-31T13:16:00;11.50;99.90
6379;DHT22;3222;48.858;10.128;2023-03-31T13:18:26;11.50;99.90
6379;DHT22;3222;48.858;10.128;2023-03-31T13:20:58;11.50;99.90
6379;DHT22;3222;48.858;10.128;2023-03-31T13:23:24;11.60;99.90
6379;DHT22;3222;48.858;10.128;2023-03-31T13:25:53;11.60;99.90
6379;DHT22;3222;48.858;10.128;2023-03-31T13:33:26;11.60;99.90
6379;DHT22;3222;48.858;10.128;2023-03-31T13:50:26;11.90;99.90
6379;DHT22;3222;48.858;10.128;2023-03-31T13:56:07;12.10;99.90
6379;DHT22;3222;48.858;10.128;2023-03-31T14:02:18;12.10;99.90
6379;DHT22;3222;48.858;10.128;2023-03-31T14:05:30;12.00;99.90
6379;DHT22;3222;48.858;10.128;2023-03-31T14:08:04;12.00;99.90
6379;DHT22;3222;48.858;10.128;2023-03-31T14:10:35;12.10;99.90
6379;DHT22;3222;48.858;10.128;2023-03-31T14:13:06;12.00;99.90
6379;DHT22;3222;48.858;10.128;2023-03-31T14:15:35;11.90;99.90
6379;DHT22;3222;48.858;10.128;2023-03-31T14:18:03;11.80;99.90
6379;DHT22;3222;48.858;10.128;2023-03-31T14:20:39;11.80;99.90
6379;DHT22;3222;48.858;10.128;2023-03-31T14:34:32;11.70;99.90
6379;DHT22;3222;48.858;10.128;2023-03-31T14:37:06;11.70;99.90
6379;DHT22;3222;48.858;10.128;2023-03-31T14:39:52;11.70;99.90
6379;DHT22;3222;48.858;10.128;2023-03-31T14:42:24;11.60;99.90
6379;DHT22;3222;48.858;10.128;2023-03-31T14:44:55;11.50;99.90
6379;DHT22;3222;48.858;10.128;2023-03-31T14:47:24;11.50;99.90
6379;DHT22;3222;48.858;10.128;2023-03-31T14:50:16;11.40;99.90
6379;DHT22;3222;48.858;10.128;2023-03-31T14:52:47;11.40;99.90
6379;DHT22;3222;48.858;10.128;2023-03-31T14:55:15;11.30;99.90
6379;DHT22;3222;48.858;10.128;2023-03-31T14:57:42;11.20;99.90
6379;DHT22;3222;48.858;10.128;2023-03-31T15:00:13;11.20;99.90
6379;DHT22;3222;48.858;10.128;2023-03-31T15:02:41;11.20;99.90
6379;DHT22;3222;48.858;10.128;2023-03-31T15:05:09;11.20;99.90
6379;DHT22;3222;48.858;10.128;2023-03-31T15:07:40;11.20;99.90
6379;DHT22;3222;48.858;10.128;2023-03-31T15:10:06;11.20;99.90
6379;DHT22;3222;48.858;10.128;2023-03-31T15:12:33;11.30;99.90
6379;DHT22;3222;48.858;10.128;2023-03-31T15:15:05;11.30;99.90
6379;DHT22;3222;48.858;10.128;2023-03-31T15:17:38;11.30;99.90
6379;DHT22;3222;48.858;10.128;2023-03-31T15:20:25;11.30;99.90
6379;DHT22;3222;48.858;10.128;2023-03-31T15:22:54;11.30;99.90
6379;DHT22;3222;48.858;10.128;2023-03-31T15:25:22;11.30;99.90
6379;DHT22;3222;48.858;10.128;2023-03-31T15:28:11;11.20;99.90
6379;DHT22;3222;48.858;10.128;2023-03-31T15:30:38;11.30;99.90
6379;DHT22;3222;48.858;10.128;2023-03-31T15:33:06;11.30;99.90
6379;DHT22;3222;48.858;10.128;2023-03-31T15:35:34;11.30;99.90
6379;DHT22;3222;48.858;10.128;2023-03-31T15:38:02;11.40;99.90
6379;DHT22;3222;48.858;10.128;2023-03-31T15:40:31;11.50;99.90
6379;DHT22;3222;48.858;10.128;2023-03-31T15:43:12;11.50;99.90
6379;DHT22;3222;48.858;10.128;2023-03-31T15:45:50;11.50;99.90
6379;DHT22;3222;48.858;10.128;2023-03-31T15:48:37;11.50;99.90
6379;DHT22;3222;48.858;10.128;2023-03-31T15:53:46;11.50;99.90
6379;DHT22;3222;48.858;10.128;2023-03-31T15:56:30;11.50;99.90
6379;DHT22;3222;48.858;10.128;2023-03-31T15:59:01;11.40;99.90
6379;DHT22;3222;48.858;10.128;2023-03-31T16:01:37;11.40;99.90
6379;DHT22;3222;48.858;10.128;2023-03-31T16:04:10;11.40;99.90
6379;DHT22;3222;48.858;10.128;2023-03-31T16:06:44;11.40;99.90
6379;DHT22;3222;48.858;10.128;2023-03-31T16:09:20;11.40;99.90
6379;DHT22;3222;48.858;10.128;2023-03-31T16:11:49;11.40;99.90
6379;DHT22;3222;48.858;10.128;2023-03-31T16:14:20;11.30;99.90
6379;DHT22;3222;48.858;10.128;2023-03-31T16:17:03;11.30;99.90
6379;DHT22;3222;48.858;10.128;2023-03-31T16:19:37;11.30;99.90
6379;DHT22;3222;48.858;10.128;2023-03-31T16:22:04;11.30;99.90
6379;DHT22;3222;48.858;10.128;2023-03-31T16:24:32;11.20;99.90
6379;DHT22;3222;48.858;10.128;2023-03-31T16:27:03;11.30;99.90
6379;DHT22;3222;48.858;10.128;2023-03-31T16:29:33;11.20;99.90
6379;DHT22;3222;48.858;10.128;2023-03-31T16:32:12;11.20;99.90
6379;DHT22;3222;48.858;10.128;2023-03-31T16:34:52;11.20;99.90
6379;DHT22;3222;48.858;10.128;2023-03-31T16:37:18;11.20;99.90
6379;DHT22;3222;48.858;10.128;2023-03-31T16:39:43;11.10;99.90
6379;DHT22;3222;48.858;10.128;2023-03-31T16:42:09;11.00;99.90
6379;DHT22;3222;48.858;10.128;2023-03-31T16:44:35;11.10;99.90
6379;DHT22;3222;48.858;10.128;2023-03-31T16:47:00;11.00;99.90
6379;DHT22;3222;48.858;10.128;2023-03-31T16:49:26;11.00;99.90
6379;DHT22;3222;48.858;10.128;2023-03-31T16:51:52;11.00;99.90
6379;DHT22;3222;48.858;10.128;2023-03-31T16:54:18;11.00;99.90
6379;DHT22;3222;48.858;10.128;2023-03-31T16:56:43;11.00;99.90
6379;DHT22;3222;48.858;10.128;2023-03-31T16:59:09;10.90;99.90
6379;DHT22;3222;48.858;10.128;2023-03-31T17:01:35;10.90;99.90
6379;DHT22;3222;48.858;10.128;2023-03-31T17:04:00;10.90;99.90
6379;DHT22;3222;48.858;10.128;2023-03-31T17:06:26;10.90;99.90
6379;DHT22;3222;48.858;10.128;2023-03-31T17:08:52;10.90;99.90
6379;DHT22;3222;48.858;10.128;2023-03-31T17:11:18;10.90;99.90
6379;DHT22;3222;48.858;10.128;2023-03-31T17:13:43;10.80;99.90
6379;DHT22;3222;48.858;10.128;2023-03-31T17:16:10;10.80;99.90
6379;DHT22;3222;48.858;10.128;2023-03-31T17:18:36;10.80;99.90
6379;DHT22;3222;48.858;10.128;2023-03-31T17:21:07;10.80;99.90
6379;DHT22;3222;48.858;10.128;2023-03-31T17:23:34;10.80;99.90
6379;DHT22;3222;48.858;10.128;2023-03-31T17:26:01;10.70;99.90
6379;DHT22;3222;48.858;10.128;2023-03-31T17:28:27;10.70;99.90
6379;DHT22;3222;48.858;10.128;2023-03-31T17:30:53;10.70;99.90
6379;DHT22;3222;48.858;10.128;2023-03-31T17:33:19;10.70;99.90
6379;DHT22;3222;48.858;10.128;2023-03-31T17:35:45;10.70;99.90
6379;DHT22;3222;48.858;10.128;2023-03-31T17:38:11;10.70;99.90
6379;DHT22;3222;48.858;10.128;2023-03-31T17:40:39;10.70;99.90
6379;DHT22;3222;48.858;10.128;2023-03-31T17:43:05;10.70;99.90
6379;DHT22;3222;48.858;10.128;2023-03-31T17:45:31;10.70;99.90
6379;DHT22;3222;48.858;10.128;2023-03-31T17:47:58;10.50;99.90
6379;DHT22;3222;48.858;10.128;2023-03-31T17:50:24;10.60;99.90
6379;DHT22;3222;48.858;10.128;2023-03-31T17:52:50;10.60;99.90
6379;DHT22;3222;48.858;10.128;2023-03-31T17:55:17;10.50;99.90
6379;DHT22;3222;48.858;10.128;2023-03-31T17:57:43;10.60;99.90
6379;DHT22;3222;48.858;10.128;2023-03-31T18:00:09;10.50;99.90
6379;DHT22;3222;48.858;10.128;2023-03-31T18:02:38;10.50;99.90
6379;DHT22;3222;48.858;10.128;2023-03-31T18:05:05;10.50;99.90
6379;DHT22;3222;48.858;10.128;2023-03-31T18:07:33;10.40;99.90
6379;DHT22;3222;48.858;10.128;2023-03-31T18:09:59;10.40;99.90
6379;DHT22;3222;48.858;10.128;2023-03-31T18:12:25;10.40;99.90
6379;DHT22;3222;48.858;10.128;2023-03-31T18:14:51;10.40;99.90
6379;DHT22;3222;48.858;10.128;2023-03-31T18:17:16;10.40;99.90
6379;DHT22;3222;48.858;10.128;2023-03-31T18:19:43;10.30;99.90
6379;DHT22;3222;48.858;10.128;2023-03-31T18:22:09;10.30;99.90
6379;DHT22;3222;48.858;10.128;2023-03-31T18:24:35;10.40;99.90
6379;DHT22;3222;48.858;10.128;2023-03-31T18:27:03;10.40;99.90
6379;DHT22;3222;48.858;10.128;2023-03-31T18:29:28;10.40;99.90
6379;DHT22;3222;48.858;10.128;2023-03-31T18:31:54;10.40;99.90